sensor_id;sensor_type;location;lat;lon;timestamp;temperature;humidity
27559;DHT22;15002;52.028;5.670;2023-04-15T00:01:18;12.20;92.10
27559;DHT22;15002;52.028;5.670;2023-04-15T00:03:44;12.40;91.90
27559;DHT22;15002;52.028;5.670;2023-04-15T00:06:10;12.10;92.30
27559;DHT22;15002;52.028;5.670;2023-04-15T00:08:36;12.00;92.40
27559;DHT22;15002;52.028;5.670;2023-04-15T00:11:02;12.10;92.40
27559;DHT22;15002;52.028;5.670;2023-04-15T00:13:30;12.10;92.60
27559;DHT22;15002;52.028;5.670;2023-04-15T00:15:57;12.30;92.40
27559;DHT22;15002;52.028;5.670;2023-04-15T00:18:23;12.20;92.50
27559;DHT22;15002;52.028;5.670;2023-04-15T00:20:49;12.30;92.40
27559;DHT22;15002;52.028;5.670;2023-04-15T00:23:14;12.10;92.70
27559;DHT22;15002;52.028;5.670;2023-04-15T00:25:40;12.10;92.60
27559;DHT22;15002;52.028;5.670;2023-04-15T00:28:06;11.90;92.90
27559;DHT22;15002;52.028;5.670;2023-04-15T00:30:31;11.80;93.60
27559;DHT22;15002;52.028;5.670;2023-04-15T00:32:58;11.60;93.50
27559;DHT22;15002;52.028;5.670;2023-04-15T00:35:23;11.70;93.50
27559;DHT22;15002;52.028;5.670;2023-04-15T00:37:49;11.50;93.70
27559;DHT22;15002;52.028;5.670;2023-04-15T00:40:18;11.60;93.90
27559;DHT22;15002;52.028;5.670;2023-04-15T00:42:43;11.40;94.10
27559;DHT22;15002;52.028;5.670;2023-04-15T00:45:10;11.20;94.60
27559;DHT22;15002;52.028;5.670;2023-04-15T00:47:36;11.40;94.40
27559;DHT22;15002;52.028;5.670;2023-04-15T00:50:03;11.60;94.20
27559;DHT22;15002;52.028;5.670;2023-04-15T00:52:29;11.30;94.60
27559;DHT22;15002;52.028;5.670;2023-04-15T00:54:55;11.00;95.10
27559;DHT22;15002;52.028;5.670;2023-04-15T00:57:21;11.10;95.30
27559;DHT22;15002;52.028;5.670;2023-04-15T00:59:47;11.10;95.20
27559;DHT22;15002;52.028;5.670;2023-04-15T01:02:14;11.50;94.60
27559;DHT22;15002;52.028;5.670;2023-04-15T01:04:39;11.40;94.90
27559;DHT22;15002;52.028;5.670;2023-04-15T01:07:05;11.00;95.40
27559;DHT22;15002;52.028;5.670;2023-04-15T01:09:31;11.10;95.20
27559;DHT22;15002;52.028;5.670;2023-04-15T01:11:57;10.90;95.50
27559;DHT22;15002;52.028;5.670;2023-04-15T01:14:24;11.10;95.70
27559;DHT22;15002;52.028;5.670;2023-04-15T01:16:51;11.20;95.40
27559;DHT22;15002;52.028;5.670;2023-04-15T01:19:17;10.90;96.00
27559;DHT22;15002;52.028;5.670;2023-04-15T01:21:43;10.90;96.00
27559;DHT22;15002;52.028;5.670;2023-04-15T01:24:10;10.90;96.00
27559;DHT22;15002;52.028;5.670;2023-04-15T01:26:39;10.90;96.10
27559;DHT22;15002;52.028;5.670;2023-04-15T01:29:05;11.10;96.00
27559;DHT22;15002;52.028;5.670;2023-04-15T01:31:31;10.90;96.20
27559;DHT22;15002;52.028;5.670;2023-04-15T01:33:57;10.40;97.10
27559;DHT22;15002;52.028;5.670;2023-04-15T01:36:23;10.40;97.50
27559;DHT22;15002;52.028;5.670;2023-04-15T01:38:49;10.60;97.00
27559;DHT22;15002;52.028;5.670;2023-04-15T01:41:15;10.90;96.60
27559;DHT22;15002;52.028;5.670;2023-04-15T01:43:41;10.90;96.80
27559;DHT22;15002;52.028;5.670;2023-04-15T01:46:07;11.10;96.40
27559;DHT22;15002;52.028;5.670;2023-04-15T01:48:33;10.90;96.90
27559;DHT22;15002;52.028;5.670;2023-04-15T01:50:59;10.80;97.10
27559;DHT22;15002;52.028;5.670;2023-04-15T01:53:24;10.50;97.60
27559;DHT22;15002;52.028;5.670;2023-04-15T01:55:50;10.40;98.00
27559;DHT22;15002;52.028;5.670;2023-04-15T01:58:17;10.40;98.50
27559;DHT22;15002;52.028;5.670;2023-04-15T02:00:42;10.30;98.40
27559;DHT22;15002;52.028;5.670;2023-04-15T02:03:08;10.10;99.10
27559;DHT22;15002;52.028;5.670;2023-04-15T02:05:34;10.00;99.40
27559;DHT22;15002;52.028;5.670;2023-04-15T02:08:00;10.50;98.90
27559;DHT22;15002;52.028;5.670;2023-04-15T02:10:25;10.10;99.40
27559;DHT22;15002;52.028;5.670;2023-04-15T02:12:52;10.30;99.40
27559;DHT22;15002;52.028;5.670;2023-04-15T02:15:18;10.70;98.90
27559;DHT22;15002;52.028;5.670;2023-04-15T02:17:44;10.60;98.70
27559;DHT22;15002;52.028;5.670;2023-04-15T02:20:15;10.50;99.10
27559;DHT22;15002;52.028;5.670;2023-04-15T02:22:41;10.30;99.40
27559;DHT22;15002;52.028;5.670;2023-04-15T02:25:07;10.20;99.90
27559;DHT22;15002;52.028;5.670;2023-04-15T02:27:34;10.60;99.30
27559;DHT22;15002;52.028;5.670;2023-04-15T02:30:00;10.60;99.20
27559;DHT22;15002;52.028;5.670;2023-04-15T02:32:26;10.40;99.60
27559;DHT22;15002;52.028;5.670;2023-04-15T02:34:53;10.20;99.90
27559;DHT22;15002;52.028;5.670;2023-04-15T02:37:19;10.40;99.90
27559;DHT22;15002;52.028;5.670;2023-04-15T02:39:45;10.20;99.90
27559;DHT22;15002;52.028;5.670;2023-04-15T02:42:11;10.20;99.90
27559;DHT22;15002;52.028;5.670;2023-04-15T02:44:37;10.10;99.90
27559;DHT22;15002;52.028;5.670;2023-04-15T02:47:03;9.90;99.90
27559;DHT22;15002;52.028;5.670;2023-04-15T02:49:31;9.60;99.90
27559;DHT22;15002;52.028;5.670;2023-04-15T02:51:57;9.50;99.90
27559;DHT22;15002;52.028;5.670;2023-04-15T02:54:25;9.50;99.90
27559;DHT22;15002;52.028;5.670;2023-04-15T02:56:53;9.50;99.90
27559;DHT22;15002;52.028;5.670;2023-04-15T02:59:20;9.50;99.90
27559;DHT22;15002;52.028;5.670;2023-04-15T03:01:46;9.50;99.90
27559;DHT22;15002;52.028;5.670;2023-04-15T03:04:11;9.80;99.90
27559;DHT22;15002;52.028;5.670;2023-04-15T03:06:38;9.50;99.90
27559;DHT22;15002;52.028;5.670;2023-04-15T03:09:04;9.00;99.90
27559;DHT22;15002;52.028;5.670;2023-04-15T03:11:30;9.40;99.90
27559;DHT22;15002;52.028;5.670;2023-04-15T03:13:56;9.30;99.90
27559;DHT22;15002;52.028;5.670;2023-04-15T03:16:21;9.40;99.90
27559;DHT22;15002;52.028;5.670;2023-04-15T03:18:47;9.40;99.90
27559;DHT22;15002;52.028;5.670;2023-04-15T03:21:13;9.10;99.90
27559;DHT22;15002;52.028;5.670;2023-04-15T03:23:38;9.20;99.90
27559;DHT22;15002;52.028;5.670;2023-04-15T03:26:04;9.10;99.90
27559;DHT22;15002;52.028;5.670;2023-04-15T03:28:30;9.00;99.90
27559;DHT22;15002;52.028;5.670;2023-04-15T03:30:57;8.90;99.90
27559;DHT22;15002;52.028;5.670;2023-04-15T03:33:22;9.20;99.90
27559;DHT22;15002;52.028;5.670;2023-04-15T03:35:49;9.20;99.90
27559;DHT22;15002;52.028;5.670;2023-04-15T03:38:15;9.10;99.90
27559;DHT22;15002;52.028;5.670;2023-04-15T03:40:41;9.10;99.90
27559;DHT22;15002;52.028;5.670;2023-04-15T03:43:06;9.30;99.90
27559;DHT22;15002;52.028;5.670;2023-04-15T03:45:32;9.20;99.90
27559;DHT22;15002;52.028;5.670;2023-04-15T03:47:58;9.10;99.90
27559;DHT22;15002;52.028;5.670;2023-04-15T03:50:23;9.00;99.90
27559;DHT22;15002;52.028;5.670;2023-04-15T03:52:49;8.80;99.90
27559;DHT22;15002;52.028;5.670;2023-04-15T03:55:15;8.90;99.90
27559;DHT22;15002;52.028;5.670;2023-04-15T03:57:41;8.70;99.90
27559;DHT22;15002;52.028;5.670;2023-04-15T04:00:08;8.90;99.90
27559;DHT22;15002;52.028;5.670;2023-04-15T04:02:35;8.70;99.90
27559;DHT22;15002;52.028;5.670;2023-04-15T04:05:00;8.80;99.90
27559;DHT22;15002;52.028;5.670;2023-04-15T04:07:26;8.70;99.90
27559;DHT22;15002;52.028;5.670;2023-04-15T04:09:52;8.90;99.90
27559;DHT22;15002;52.028;5.670;2023-04-15T04:12:17;9.20;99.90
27559;DHT22;15002;52.028;5.670;2023-04-15T04:14:43;9.20;99.90
27559;DHT22;15002;52.028;5.670;2023-04-15T04:17:08;9.00;99.90
27559;DHT22;15002;52.028;5.670;2023-04-15T04:19:34;9.10;99.90
27559;DHT22;15002;52.028;5.670;2023-04-15T04:22:00;9.00;99.90
27559;DHT22;15002;52.028;5.670;2023-04-15T04:24:26;8.90;99.90
27559;DHT22;15002;52.028;5.670;2023-04-15T04:26:52;8.60;99.90
27559;DHT22;15002;52.028;5.670;2023-04-15T04:29:17;8.90;99.90
27559;DHT22;15002;52.028;5.670;2023-04-15T04:31:43;8.90;99.90
27559;DHT22;15002;52.028;5.670;2023-04-15T04:34:08;8.60;99.90
27559;DHT22;15002;52.028;5.670;2023-04-15T04:36:34;8.60;99.90
27559;DHT22;15002;52.028;5.670;2023-04-15T04:39:00;8.70;99.90
27559;DHT22;15002;52.028;5.670;2023-04-15T04:41:26;8.60;99.90
27559;DHT22;15002;52.028;5.670;2023-04-15T04:43:51;8.70;99.90
27559;DHT22;15002;52.028;5.670;2023-04-15T04:46:17;8.80;99.90
27559;DHT22;15002;52.028;5.670;2023-04-15T04:48:42;8.90;99.90
27559;DHT22;15002;52.028;5.670;2023-04-15T04:51:09;9.00;99.90
27559;DHT22;15002;52.028;5.670;2023-04-15T04:53:34;9.20;99.90
27559;DHT22;15002;52.028;5.670;2023-04-15T04:56:02;9.00;99.90
27559;DHT22;15002;52.028;5.670;2023-04-15T04:58:28;8.90;99.90
27559;DHT22;15002;52.028;5.670;2023-04-15T05:00:53;8.90;99.90
27559;DHT22;15002;52.028;5.670;2023-04-15T05:03:19;8.80;99.90
27559;DHT22;15002;52.028;5.670;2023-04-15T05:05:45;9.00;99.90
27559;DHT22;15002;52.028;5.670;2023-04-15T05:08:10;8.50;99.90
27559;DHT22;15002;52.028;5.670;2023-04-15T05:10:36;8.50;99.90
27559;DHT22;15002;52.028;5.670;2023-04-15T05:13:02;8.40;99.90
27559;DHT22;15002;52.028;5.670;2023-04-15T05:15:27;8.70;99.90
27559;DHT22;15002;52.028;5.670;2023-04-15T05:17:53;9.00;99.90
27559;DHT22;15002;52.028;5.670;2023-04-15T05:20:19;8.70;99.90
27559;DHT22;15002;52.028;5.670;2023-04-15T05:22:45;8.60;99.90
27559;DHT22;15002;52.028;5.670;2023-04-15T05:25:10;8.60;99.90
27559;DHT22;15002;52.028;5.670;2023-04-15T05:27:36;8.70;99.90
27559;DHT22;15002;52.028;5.670;2023-04-15T05:30:02;8.50;99.90
27559;DHT22;15002;52.028;5.670;2023-04-15T05:32:28;8.70;99.90
27559;DHT22;15002;52.028;5.670;2023-04-15T05:34:53;8.80;99.90
27559;DHT22;15002;52.028;5.670;2023-04-15T05:37:19;8.50;99.90
27559;DHT22;15002;52.028;5.670;2023-04-15T05:39:45;8.50;99.90
27559;DHT22;15002;52.028;5.670;2023-04-15T05:42:11;8.70;99.90
27559;DHT22;15002;52.028;5.670;2023-04-15T05:44:37;9.00;99.90
27559;DHT22;15002;52.028;5.670;2023-04-15T05:47:02;8.90;99.90
27559;DHT22;15002;52.028;5.670;2023-04-15T05:49:28;9.10;99.90
27559;DHT22;15002;52.028;5.670;2023-04-15T05:51:54;9.30;99.90
27559;DHT22;15002;52.028;5.670;2023-04-15T05:54:20;9.80;99.90
27559;DHT22;15002;52.028;5.670;2023-04-15T05:56:47;9.60;99.90
27559;DHT22;15002;52.028;5.670;2023-04-15T05:59:13;9.80;99.90
27559;DHT22;15002;52.028;5.670;2023-04-15T06:01:38;10.10;99.90
27559;DHT22;15002;52.028;5.670;2023-04-15T06:04:04;10.40;99.90
27559;DHT22;15002;52.028;5.670;2023-04-15T06:06:30;10.80;99.90
27559;DHT22;15002;52.028;5.670;2023-04-15T06:08:57;11.00;99.90
27559;DHT22;15002;52.028;5.670;2023-04-15T06:11:23;11.10;99.90
27559;DHT22;15002;52.028;5.670;2023-04-15T06:13:48;11.50;99.90
27559;DHT22;15002;52.028;5.670;2023-04-15T06:16:14;11.80;99.90
27559;DHT22;15002;52.028;5.670;2023-04-15T06:18:40;11.60;99.90
27559;DHT22;15002;52.028;5.670;2023-04-15T06:21:05;11.80;99.90
27559;DHT22;15002;52.028;5.670;2023-04-15T06:23:33;12.00;99.90
27559;DHT22;15002;52.028;5.670;2023-04-15T06:26:00;12.30;99.90
27559;DHT22;15002;52.028;5.670;2023-04-15T06:28:26;12.20;99.90
27559;DHT22;15002;52.028;5.670;2023-04-15T06:30:52;12.30;99.90
27559;DHT22;15002;52.028;5.670;2023-04-15T06:33:18;12.50;99.90
27559;DHT22;15002;52.028;5.670;2023-04-15T06:35:44;12.60;99.90
27559;DHT22;15002;52.028;5.670;2023-04-15T06:38:09;12.80;99.90
27559;DHT22;15002;52.028;5.670;2023-04-15T06:40:35;13.10;99.90
27559;DHT22;15002;52.028;5.670;2023-04-15T06:43:01;13.20;99.90
27559;DHT22;15002;52.028;5.670;2023-04-15T06:45:26;13.60;99.90
27559;DHT22;15002;52.028;5.670;2023-04-15T06:47:52;13.30;99.90
27559;DHT22;15002;52.028;5.670;2023-04-15T06:50:18;13.60;99.90
27559;DHT22;15002;52.028;5.670;2023-04-15T06:52:43;13.90;99.90
27559;DHT22;15002;52.028;5.670;2023-04-15T06:55:09;14.30;99.90
27559;DHT22;15002;52.028;5.670;2023-04-15T06:57:35;14.00;99.90
27559;DHT22;15002;52.028;5.670;2023-04-15T07:00:01;14.10;99.90
27559;DHT22;15002;52.028;5.670;2023-04-15T07:02:26;14.30;99.90
27559;DHT22;15002;52.028;5.670;2023-04-15T07:04:52;14.20;99.90
27559;DHT22;15002;52.028;5.670;2023-04-15T07:07:17;14.60;99.90
27559;DHT22;15002;52.028;5.670;2023-04-15T07:09:43;14.10;99.90
27559;DHT22;15002;52.028;5.670;2023-04-15T07:12:09;14.60;99.90
27559;DHT22;15002;52.028;5.670;2023-04-15T07:14:35;14.80;99.90
27559;DHT22;15002;52.028;5.670;2023-04-15T07:17:00;14.80;99.70
27559;DHT22;15002;52.028;5.670;2023-04-15T07:19:27;14.90;98.90
27559;DHT22;15002;52.028;5.670;2023-04-15T07:21:52;14.00;99.90
27559;DHT22;15002;52.028;5.670;2023-04-15T07:24:18;14.10;99.90
27559;DHT22;15002;52.028;5.670;2023-04-15T07:26:45;14.30;99.30
27559;DHT22;15002;52.028;5.670;2023-04-15T07:29:10;14.10;99.50
27559;DHT22;15002;52.028;5.670;2023-04-15T07:31:36;14.40;99.10
27559;DHT22;15002;52.028;5.670;2023-04-15T07:34:02;14.70;98.00
27559;DHT22;15002;52.028;5.670;2023-04-15T07:36:29;14.80;97.40
27559;DHT22;15002;52.028;5.670;2023-04-15T07:38:55;14.50;98.10
27559;DHT22;15002;52.028;5.670;2023-04-15T07:41:21;14.40;97.70
27559;DHT22;15002;52.028;5.670;2023-04-15T07:43:47;13.70;98.80
27559;DHT22;15002;52.028;5.670;2023-04-15T07:46:13;13.50;99.90
27559;DHT22;15002;52.028;5.670;2023-04-15T07:48:39;13.00;99.90
27559;DHT22;15002;52.028;5.670;2023-04-15T07:51:05;13.10;99.90
27559;DHT22;15002;52.028;5.670;2023-04-15T07:53:31;13.10;99.90
27559;DHT22;15002;52.028;5.670;2023-04-15T07:55:57;12.80;99.90
27559;DHT22;15002;52.028;5.670;2023-04-15T07:58:23;13.20;99.90
27559;DHT22;15002;52.028;5.670;2023-04-15T08:00:49;13.20;99.90
27559;DHT22;15002;52.028;5.670;2023-04-15T08:03:15;13.00;99.90
27559;DHT22;15002;52.028;5.670;2023-04-15T08:05:41;12.60;99.90
27559;DHT22;15002;52.028;5.670;2023-04-15T08:08:07;12.60;99.90
27559;DHT22;15002;52.028;5.670;2023-04-15T08:10:33;12.60;99.90
27559;DHT22;15002;52.028;5.670;2023-04-15T08:12:59;12.60;99.90
27559;DHT22;15002;52.028;5.670;2023-04-15T08:15:25;12.50;99.90
27559;DHT22;15002;52.028;5.670;2023-04-15T08:17:51;12.50;99.90
27559;DHT22;15002;52.028;5.670;2023-04-15T08:20:17;11.90;99.90
27559;DHT22;15002;52.028;5.670;2023-04-15T08:22:43;11.90;99.90
27559;DHT22;15002;52.028;5.670;2023-04-15T08:25:09;12.20;99.90
27559;DHT22;15002;52.028;5.670;2023-04-15T08:27:34;12.60;99.90
27559;DHT22;15002;52.028;5.670;2023-04-15T08:30:00;12.60;99.90
27559;DHT22;15002;52.028;5.670;2023-04-15T08:32:26;12.70;99.90
27559;DHT22;15002;52.028;5.670;2023-04-15T08:34:52;13.10;99.90
27559;DHT22;15002;52.028;5.670;2023-04-15T08:37:17;13.20;99.90
27559;DHT22;15002;52.028;5.670;2023-04-15T08:39:43;13.50;99.90
27559;DHT22;15002;52.028;5.670;2023-04-15T08:42:16;13.90;99.90
27559;DHT22;15002;52.028;5.670;2023-04-15T08:44:44;13.60;99.70
27559;DHT22;15002;52.028;5.670;2023-04-15T08:47:12;13.50;99.90
27559;DHT22;15002;52.028;5.670;2023-04-15T08:49:40;13.80;99.90
27559;DHT22;15002;52.028;5.670;2023-04-15T08:52:08;14.00;99.60
27559;DHT22;15002;52.028;5.670;2023-04-15T08:54:34;14.00;98.60
27559;DHT22;15002;52.028;5.670;2023-04-15T08:57:01;13.50;99.70
27559;DHT22;15002;52.028;5.670;2023-04-15T08:59:29;13.10;99.90
27559;DHT22;15002;52.028;5.670;2023-04-15T09:01:56;13.00;99.90
27559;DHT22;15002;52.028;5.670;2023-04-15T09:04:22;13.20;99.90
27559;DHT22;15002;52.028;5.670;2023-04-15T09:06:48;13.10;99.90
27559;DHT22;15002;52.028;5.670;2023-04-15T09:09:14;13.30;99.90
27559;DHT22;15002;52.028;5.670;2023-04-15T09:11:40;13.70;99.90
27559;DHT22;15002;52.028;5.670;2023-04-15T09:14:06;13.90;99.70
27559;DHT22;15002;52.028;5.670;2023-04-15T09:16:55;13.80;99.70
27559;DHT22;15002;52.028;5.670;2023-04-15T09:19:22;14.20;99.60
27559;DHT22;15002;52.028;5.670;2023-04-15T09:21:50;14.50;98.10
27559;DHT22;15002;52.028;5.670;2023-04-15T09:24:16;14.70;98.80
27559;DHT22;15002;52.028;5.670;2023-04-15T09:26:42;14.70;98.00
27559;DHT22;15002;52.028;5.670;2023-04-15T09:29:11;14.80;97.30
27559;DHT22;15002;52.028;5.670;2023-04-15T09:31:40;14.40;96.70
27559;DHT22;15002;52.028;5.670;2023-04-15T09:34:07;14.00;97.30
27559;DHT22;15002;52.028;5.670;2023-04-15T09:39:13;14.50;96.60
27559;DHT22;15002;52.028;5.670;2023-04-15T09:41:39;15.00;96.20
27559;DHT22;15002;52.028;5.670;2023-04-15T09:44:05;15.20;95.60
27559;DHT22;15002;52.028;5.670;2023-04-15T09:46:44;15.70;95.60
27559;DHT22;15002;52.028;5.670;2023-04-15T09:49:19;15.70;94.60
27559;DHT22;15002;52.028;5.670;2023-04-15T09:51:45;14.80;96.20
27559;DHT22;15002;52.028;5.670;2023-04-15T09:54:11;15.10;96.40
27559;DHT22;15002;52.028;5.670;2023-04-15T09:56:38;15.30;95.90
27559;DHT22;15002;52.028;5.670;2023-04-15T09:59:12;15.10;95.90
27559;DHT22;15002;52.028;5.670;2023-04-15T10:01:40;15.10;96.00
27559;DHT22;15002;52.028;5.670;2023-04-15T10:04:08;15.20;95.60
27559;DHT22;15002;52.028;5.670;2023-04-15T10:06:34;15.00;95.50
27559;DHT22;15002;52.028;5.670;2023-04-15T10:09:00;14.60;97.00
27559;DHT22;15002;52.028;5.670;2023-04-15T10:11:28;14.70;97.10
27559;DHT22;15002;52.028;5.670;2023-04-15T10:13:55;15.00;97.20
27559;DHT22;15002;52.028;5.670;2023-04-15T10:16:25;15.60;96.20
27559;DHT22;15002;52.028;5.670;2023-04-15T10:18:54;15.60;95.80
27559;DHT22;15002;52.028;5.670;2023-04-15T10:21:20;15.50;95.30
27559;DHT22;15002;52.028;5.670;2023-04-15T10:23:48;15.10;95.80
27559;DHT22;15002;52.028;5.670;2023-04-15T10:26:15;14.60;97.00
27559;DHT22;15002;52.028;5.670;2023-04-15T10:28:45;14.80;97.20
27559;DHT22;15002;52.028;5.670;2023-04-15T10:31:14;14.90;97.00
27559;DHT22;15002;52.028;5.670;2023-04-15T10:33:42;14.60;97.40
27559;DHT22;15002;52.028;5.670;2023-04-15T10:36:09;15.00;97.40
27559;DHT22;15002;52.028;5.670;2023-04-15T10:38:41;15.70;96.60
27559;DHT22;15002;52.028;5.670;2023-04-15T10:41:24;16.10;95.40
27559;DHT22;15002;52.028;5.670;2023-04-15T10:46:33;15.60;96.30
27559;DHT22;15002;52.028;5.670;2023-04-15T10:49:14;15.40;96.60
27559;DHT22;15002;52.028;5.670;2023-04-15T10:51:42;14.90;96.90
27559;DHT22;15002;52.028;5.670;2023-04-15T10:54:16;14.50;96.80
27559;DHT22;15002;52.028;5.670;2023-04-15T10:56:43;14.60;97.40
27559;DHT22;15002;52.028;5.670;2023-04-15T10:59:09;14.90;97.10
27559;DHT22;15002;52.028;5.670;2023-04-15T11:01:55;15.00;97.20
27559;DHT22;15002;52.028;5.670;2023-04-15T11:04:53;15.50;96.90
27559;DHT22;15002;52.028;5.670;2023-04-15T11:07:39;16.00;96.30
27559;DHT22;15002;52.028;5.670;2023-04-15T11:12:51;15.90;95.80
27559;DHT22;15002;52.028;5.670;2023-04-15T11:15:41;16.20;95.80
27559;DHT22;15002;52.028;5.670;2023-04-15T11:18:15;16.80;94.70
27559;DHT22;15002;52.028;5.670;2023-04-15T11:20:46;16.80;93.70
27559;DHT22;15002;52.028;5.670;2023-04-15T11:23:14;15.90;95.10
27559;DHT22;15002;52.028;5.670;2023-04-15T11:25:40;15.90;94.80
27559;DHT22;15002;52.028;5.670;2023-04-15T11:28:06;15.00;96.50
27559;DHT22;15002;52.028;5.670;2023-04-15T11:30:36;15.40;96.40
27559;DHT22;15002;52.028;5.670;2023-04-15T11:33:04;15.70;96.20
27559;DHT22;15002;52.028;5.670;2023-04-15T11:35:30;15.20;95.80
27559;DHT22;15002;52.028;5.670;2023-04-15T11:37:56;15.30;96.20
27559;DHT22;15002;52.028;5.670;2023-04-15T11:40:28;15.40;95.90
27559;DHT22;15002;52.028;5.670;2023-04-15T11:43:04;16.00;95.10
27559;DHT22;15002;52.028;5.670;2023-04-15T11:45:30;16.50;94.60
27559;DHT22;15002;52.028;5.670;2023-04-15T11:48:13;16.40;93.50
27559;DHT22;15002;52.028;5.670;2023-04-15T11:50:39;15.90;94.50
27559;DHT22;15002;52.028;5.670;2023-04-15T11:53:07;15.40;95.50
27559;DHT22;15002;52.028;5.670;2023-04-15T11:58:20;15.80;94.00
27559;DHT22;15002;52.028;5.670;2023-04-15T12:00:51;15.60;94.60
27559;DHT22;15002;52.028;5.670;2023-04-15T12:03:23;15.70;94.90
27559;DHT22;15002;52.028;5.670;2023-04-15T12:16:27;16.00;94.90
27559;DHT22;15002;52.028;5.670;2023-04-15T12:18:57;16.30;94.10
27559;DHT22;15002;52.028;5.670;2023-04-15T12:21:25;16.30;93.40
27559;DHT22;15002;52.028;5.670;2023-04-15T12:23:53;16.10;93.90
27559;DHT22;15002;52.028;5.670;2023-04-15T12:26:30;15.90;94.60
27559;DHT22;15002;52.028;5.670;2023-04-15T12:29:03;16.00;94.90
27559;DHT22;15002;52.028;5.670;2023-04-15T12:31:29;16.30;94.30
27559;DHT22;15002;52.028;5.670;2023-04-15T12:33:56;15.90;95.20
27559;DHT22;15002;52.028;5.670;2023-04-15T12:36:22;15.90;95.00
27559;DHT22;15002;52.028;5.670;2023-04-15T12:38:48;16.10;94.70
27559;DHT22;15002;52.028;5.670;2023-04-15T12:41:14;16.20;93.40
27559;DHT22;15002;52.028;5.670;2023-04-15T12:43:40;15.90;94.00
27559;DHT22;15002;52.028;5.670;2023-04-15T12:46:06;15.90;94.80
27559;DHT22;15002;52.028;5.670;2023-04-15T12:48:33;16.40;94.70
27559;DHT22;15002;52.028;5.670;2023-04-15T12:50:59;16.90;93.70
27559;DHT22;15002;52.028;5.670;2023-04-15T12:53:25;17.00;93.20
27559;DHT22;15002;52.028;5.670;2023-04-15T12:55:50;17.20;93.30
27559;DHT22;15002;52.028;5.670;2023-04-15T12:58:16;16.70;93.00
27559;DHT22;15002;52.028;5.670;2023-04-15T13:00:42;15.90;94.30
27559;DHT22;15002;52.028;5.670;2023-04-15T13:03:07;16.00;94.30
27559;DHT22;15002;52.028;5.670;2023-04-15T13:05:33;16.30;94.40
27559;DHT22;15002;52.028;5.670;2023-04-15T13:08:01;16.60;94.40
27559;DHT22;15002;52.028;5.670;2023-04-15T13:10:27;16.70;93.80
27559;DHT22;15002;52.028;5.670;2023-04-15T13:12:53;16.80;93.40
27559;DHT22;15002;52.028;5.670;2023-04-15T13:15:21;16.00;94.10
27559;DHT22;15002;52.028;5.670;2023-04-15T13:17:47;15.90;94.70
27559;DHT22;15002;52.028;5.670;2023-04-15T13:20:13;15.80;94.30
27559;DHT22;15002;52.028;5.670;2023-04-15T13:22:39;15.90;94.30
27559;DHT22;15002;52.028;5.670;2023-04-15T13:25:05;15.90;93.80
27559;DHT22;15002;52.028;5.670;2023-04-15T13:27:31;16.10;93.40
27559;DHT22;15002;52.028;5.670;2023-04-15T13:29:58;16.40;93.80
27559;DHT22;15002;52.028;5.670;2023-04-15T13:32:24;16.10;95.00
27559;DHT22;15002;52.028;5.670;2023-04-15T13:34:50;16.30;95.00
27559;DHT22;15002;52.028;5.670;2023-04-15T13:37:16;15.90;95.30
27559;DHT22;15002;52.028;5.670;2023-04-15T13:39:42;16.20;94.10
27559;DHT22;15002;52.028;5.670;2023-04-15T13:42:07;15.80;94.10
27559;DHT22;15002;52.028;5.670;2023-04-15T13:44:33;15.20;95.00
27559;DHT22;15002;52.028;5.670;2023-04-15T13:46:59;15.30;95.60
27559;DHT22;15002;52.028;5.670;2023-04-15T13:49:25;15.40;94.80
27559;DHT22;15002;52.028;5.670;2023-04-15T13:51:51;14.80;96.10
27559;DHT22;15002;52.028;5.670;2023-04-15T13:54:16;15.00;95.80
27559;DHT22;15002;52.028;5.670;2023-04-15T13:56:42;14.90;96.10
27559;DHT22;15002;52.028;5.670;2023-04-15T13:59:07;14.70;96.70
27559;DHT22;15002;52.028;5.670;2023-04-15T14:01:34;14.50;97.20
27559;DHT22;15002;52.028;5.670;2023-04-15T14:04:00;14.50;97.30
27559;DHT22;15002;52.028;5.670;2023-04-15T14:06:26;14.50;97.70
27559;DHT22;15002;52.028;5.670;2023-04-15T14:08:52;14.90;97.10
27559;DHT22;15002;52.028;5.670;2023-04-15T14:11:18;15.40;96.60
27559;DHT22;15002;52.028;5.670;2023-04-15T14:13:44;15.40;96.60
27559;DHT22;15002;52.028;5.670;2023-04-15T14:16:10;15.30;96.60
27559;DHT22;15002;52.028;5.670;2023-04-15T14:18:36;15.00;97.20
27559;DHT22;15002;52.028;5.670;2023-04-15T14:21:04;15.20;96.60
27559;DHT22;15002;52.028;5.670;2023-04-15T14:23:30;14.90;97.20
27559;DHT22;15002;52.028;5.670;2023-04-15T14:25:56;14.70;97.20
27559;DHT22;15002;52.028;5.670;2023-04-15T14:28:22;14.80;97.40
27559;DHT22;15002;52.028;5.670;2023-04-15T14:30:47;14.80;97.60
27559;DHT22;15002;52.028;5.670;2023-04-15T14:33:13;14.70;98.20
27559;DHT22;15002;52.028;5.670;2023-04-15T14:35:38;14.80;98.20
27559;DHT22;15002;52.028;5.670;2023-04-15T14:38:04;15.10;98.00
27559;DHT22;15002;52.028;5.670;2023-04-15T14:40:35;15.10;98.00
27559;DHT22;15002;52.028;5.670;2023-04-15T14:43:02;15.10;98.30
27559;DHT22;15002;52.028;5.670;2023-04-15T14:45:28;14.80;98.70
27559;DHT22;15002;52.028;5.670;2023-04-15T14:47:54;14.80;98.50
27559;DHT22;15002;52.028;5.670;2023-04-15T14:50:20;14.70;98.60
27559;DHT22;15002;52.028;5.670;2023-04-15T14:52:46;14.80;98.80
27559;DHT22;15002;52.028;5.670;2023-04-15T14:55:12;14.80;98.60
27559;DHT22;15002;52.028;5.670;2023-04-15T14:57:40;15.10;98.20
27559;DHT22;15002;52.028;5.670;2023-04-15T15:00:06;15.30;97.80
27559;DHT22;15002;52.028;5.670;2023-04-15T15:02:33;15.10;97.90
27559;DHT22;15002;52.028;5.670;2023-04-15T15:05:00;15.00;98.00
27559;DHT22;15002;52.028;5.670;2023-04-15T15:07:26;15.10;98.00
27559;DHT22;15002;52.028;5.670;2023-04-15T15:09:52;14.80;98.70
27559;DHT22;15002;52.028;5.670;2023-04-15T15:12:18;14.50;99.20
27559;DHT22;15002;52.028;5.670;2023-04-15T15:14:43;14.60;99.20
27559;DHT22;15002;52.028;5.670;2023-04-15T15:17:09;14.10;99.80
27559;DHT22;15002;52.028;5.670;2023-04-15T15:19:35;14.00;99.90
27559;DHT22;15002;52.028;5.670;2023-04-15T15:22:02;14.10;99.90
27559;DHT22;15002;52.028;5.670;2023-04-15T15:24:28;14.10;99.90
27559;DHT22;15002;52.028;5.670;2023-04-15T15:26:54;14.10;99.90
27559;DHT22;15002;52.028;5.670;2023-04-15T15:29:19;14.30;99.90
27559;DHT22;15002;52.028;5.670;2023-04-15T15:31:45;14.00;99.90
27559;DHT22;15002;52.028;5.670;2023-04-15T15:34:11;14.00;99.90
27559;DHT22;15002;52.028;5.670;2023-04-15T15:36:36;13.90;99.90
27559;DHT22;15002;52.028;5.670;2023-04-15T15:39:02;13.70;99.90
27559;DHT22;15002;52.028;5.670;2023-04-15T15:41:28;13.90;99.90
27559;DHT22;15002;52.028;5.670;2023-04-15T15:43:53;13.70;99.90
27559;DHT22;15002;52.028;5.670;2023-04-15T15:46:19;14.00;99.90
27559;DHT22;15002;52.028;5.670;2023-04-15T15:48:45;13.60;99.90
27559;DHT22;15002;52.028;5.670;2023-04-15T15:51:10;13.80;99.90
27559;DHT22;15002;52.028;5.670;2023-04-15T15:53:37;13.70;99.90